createdAt,value
2022-08-05T00:02:14.840Z,20.16
2022-08-05T00:04:37.711Z,20.16
2022-08-05T00:07:58.709Z,20.12
2022-08-05T00:09:44.080Z,20.06
2022-08-05T00:12:06.293Z,20.01
2022-08-05T00:14:35.300Z,19.96
2022-08-05T00:16:57.794Z,19.93
2022-08-05T00:19:19.660Z,19.91
2022-08-05T00:21:44.006Z,19.89
2022-08-05T00:24:10.493Z,19.91
2022-08-05T00:26:33.666Z,19.90
2022-08-05T00:28:55.473Z,19.88
2022-08-05T00:31:53.255Z,19.87
2022-08-05T00:34:55.705Z,19.86
2022-08-05T00:37:11.128Z,19.83
2022-08-05T00:39:23.157Z,19.83
2022-08-05T00:41:55.020Z,19.81
2022-08-05T00:44:18.450Z,19.79
2022-08-05T00:46:43.747Z,19.77
2022-08-05T00:49:05.782Z,19.77
2022-08-05T00:51:51.473Z,19.77
2022-08-05T00:54:13.659Z,19.78
2022-08-05T00:56:35.749Z,19.78
2022-08-05T00:59:00.194Z,19.79
2022-08-05T01:01:42.239Z,19.80
2022-08-05T01:04:13.940Z,19.82
2022-08-05T01:06:36.393Z,19.87
2022-08-05T01:09:00.432Z,19.85
2022-08-05T01:11:37.312Z,19.83
2022-08-05T01:14:28.222Z,19.78
2022-08-05T01:17:20.662Z,19.72
2022-08-05T01:20:02.306Z,19.69
2022-08-05T01:23:15.000Z,19.63
2022-08-05T01:26:09.797Z,19.56
2022-08-05T01:28:52.093Z,19.49
2022-08-05T01:31:44.868Z,19.46
2022-08-05T01:34:20.263Z,19.43
2022-08-05T01:37:24.792Z,19.43
2022-08-05T01:39:51.282Z,19.39
2022-08-05T01:42:17.384Z,19.37
2022-08-05T01:44:40.496Z,19.36
2022-08-05T01:47:05.134Z,19.36
2022-08-05T01:50:01.847Z,19.37
2022-08-05T01:52:17.817Z,19.38
2022-08-05T01:54:52.811Z,19.38
2022-08-05T01:58:11.776Z,19.38
2022-08-05T02:00:12.302Z,19.38
2022-08-05T02:02:46.408Z,19.41
2022-08-05T02:05:18.210Z,19.41
2022-08-05T02:07:56.226Z,19.41
2022-08-05T02:10:28.095Z,19.40
2022-08-05T02:13:01.428Z,19.40
2022-08-05T02:15:34.628Z,19.40
2022-08-05T02:18:32.692Z,19.42
2022-08-05T02:21:13.236Z,19.41
2022-08-05T02:23:41.569Z,19.39
2022-08-05T02:26:07.975Z,19.37
2022-08-05T02:28:44.588Z,19.37
2022-08-05T02:31:16.956Z,19.34
2022-08-05T02:34:13.694Z,19.30
2022-08-05T02:36:42.669Z,19.26
2022-08-05T02:39:09.394Z,19.24
2022-08-05T02:41:36.156Z,19.23
2022-08-05T02:44:06.042Z,19.21
2022-08-05T02:46:36.372Z,19.18
2022-08-05T02:49:17.760Z,19.16
2022-08-05T02:52:03.590Z,19.14
2022-08-05T02:54:34.857Z,19.15
2022-08-05T02:57:00.822Z,19.16
2022-08-05T02:59:26.912Z,19.16
2022-08-05T03:01:52.280Z,19.16
2022-08-05T03:04:15.188Z,19.14
2022-08-05T03:06:55.958Z,19.12
2022-08-05T03:09:36.549Z,19.12
2022-08-05T03:12:00.170Z,19.11
2022-08-05T03:14:23.852Z,19.05
2022-08-05T03:16:47.986Z,19.01
2022-08-05T03:19:16.829Z,18.99
2022-08-05T03:21:41.410Z,18.97
2022-08-05T03:24:11.226Z,18.94
2022-08-05T03:26:36.123Z,18.90
2022-08-05T03:28:58.385Z,18.88
2022-08-05T03:31:56.070Z,18.87
2022-08-05T03:34:03.774Z,18.85
2022-08-05T03:36:30.126Z,18.85
2022-08-05T03:38:53.406Z,18.83
2022-08-05T03:41:16.626Z,18.83
2022-08-05T03:44:09.121Z,18.81
2022-08-05T03:46:29.684Z,18.82
2022-08-05T03:48:51.932Z,18.81
2022-08-05T03:52:49.028Z,18.79
2022-08-05T03:55:50.144Z,18.80
2022-08-05T03:57:16.499Z,18.78
2022-08-05T03:59:55.012Z,18.79
2022-08-05T04:02:37.422Z,18.78
2022-08-05T04:05:04.012Z,18.76
2022-08-05T04:07:33.054Z,18.77
2022-08-05T04:09:56.612Z,18.81
2022-08-05T04:12:24.838Z,18.86
2022-08-05T04:14:47.594Z,18.85
2022-08-05T04:17:12.228Z,18.86
2022-08-05T04:19:46.795Z,18.92
2022-08-05T04:22:20.478Z,18.95
2022-08-05T04:24:52.567Z,18.90
2022-08-05T04:27:15.632Z,18.86
2022-08-05T04:29:37.504Z,18.83
2022-08-05T04:31:59.564Z,18.81
2022-08-05T04:34:33.091Z,18.81
2022-08-05T04:36:56.487Z,18.81
2022-08-05T04:39:19.853Z,18.84
2022-08-05T04:41:41.786Z,18.88
2022-08-05T04:44:09.030Z,18.92
2022-08-05T04:46:31.942Z,18.94
2022-08-05T04:48:53.764Z,18.97
2022-08-05T04:51:17.542Z,18.96
2022-08-05T04:53:40.405Z,18.90
2022-08-05T04:56:33.408Z,18.83
2022-08-05T04:58:45.425Z,18.79
2022-08-05T05:01:07.851Z,18.79
2022-08-05T05:03:32.515Z,18.79
2022-08-05T05:06:36.133Z,18.79
2022-08-05T05:08:45.940Z,18.77
2022-08-05T05:11:11.990Z,18.75
2022-08-05T05:13:43.191Z,18.74
2022-08-05T05:16:06.050Z,18.75
2022-08-05T05:18:33.334Z,18.76
2022-08-05T05:20:55.884Z,18.76
2022-08-05T05:23:20.302Z,18.75
2022-08-05T05:25:44.662Z,18.74
2022-08-05T05:28:11.978Z,18.78
2022-08-05T05:30:34.050Z,18.83
2022-08-05T05:32:56.583Z,18.86
2022-08-05T05:35:19.231Z,18.90
2022-08-05T05:38:00.245Z,18.93
2022-08-05T05:40:26.175Z,18.99
2022-08-05T05:42:51.272Z,19.01
2022-08-05T05:45:14.259Z,19.01
2022-08-05T05:48:06.480Z,19.02
2022-08-05T05:50:19.912Z,19.01
2022-08-05T05:52:43.254Z,19.03
2022-08-05T05:55:13.684Z,19.02
2022-08-05T05:57:42.705Z,19.04
2022-08-05T06:00:21.556Z,19.02
2022-08-05T06:02:53.470Z,19.00
2022-08-05T06:05:17.216Z,18.97
2022-08-05T06:07:41.570Z,18.94
2022-08-05T06:10:10.476Z,18.91
2022-08-05T06:12:33.711Z,18.88
2022-08-05T06:15:07.995Z,18.90
2022-08-05T06:17:30.853Z,18.89
2022-08-05T06:19:57.231Z,18.89
2022-08-05T06:22:33.785Z,18.95
2022-08-05T06:24:56.161Z,18.99
2022-08-05T06:28:12.791Z,19.04
2022-08-05T06:30:02.678Z,19.09
2022-08-05T06:32:29.640Z,19.11
2022-08-05T06:34:53.543Z,19.09
2022-08-05T06:37:18.216Z,19.07
2022-08-05T06:39:59.974Z,19.09
2022-08-05T06:42:24.474Z,19.10
2022-08-05T06:44:49.181Z,19.12
2022-08-05T06:48:11.571Z,19.12
2022-08-05T06:50:00.025Z,19.14
2022-08-05T06:52:36.578Z,19.17
2022-08-05T06:55:00.461Z,19.19
2022-08-05T06:58:03.961Z,19.22
2022-08-05T07:00:07.652Z,19.26
2022-08-05T07:02:31.768Z,19.28
2022-08-05T07:04:53.577Z,19.32
2022-08-05T07:07:15.642Z,19.33
2022-08-05T07:09:46.366Z,19.35
2022-08-05T07:12:35.952Z,19.37
2022-08-05T07:15:34.611Z,19.40
2022-08-05T07:18:08.145Z,19.43
2022-08-05T07:20:33.759Z,19.47
2022-08-05T07:22:56.176Z,19.50
2022-08-05T07:25:54.969Z,19.55
2022-08-05T07:28:04.164Z,19.62
2022-08-05T07:30:38.344Z,19.67
2022-08-05T07:33:09.634Z,19.73
2022-08-05T07:36:05.057Z,19.78
2022-08-05T07:38:32.321Z,19.82
2022-08-05T07:41:00.418Z,19.90
2022-08-05T07:43:26.693Z,19.94
2022-08-05T07:45:56.547Z,19.98
2022-08-05T07:49:04.225Z,20.01
2022-08-05T07:51:01.653Z,20.08
2022-08-05T07:53:23.542Z,20.17
2022-08-05T07:56:15.731Z,20.22
2022-08-05T07:58:57.403Z,20.22
2022-08-05T08:01:22.275Z,20.25
2022-08-05T08:03:45.076Z,20.27
2022-08-05T08:06:07.458Z,20.27
2022-08-05T08:08:32.106Z,20.27
2022-08-05T08:10:55.643Z,20.30
2022-08-05T08:13:22.154Z,20.36
2022-08-05T08:16:35.348Z,20.39
2022-08-05T08:18:33.681Z,20.42
2022-08-05T08:21:02.802Z,20.44
2022-08-05T08:24:03.271Z,20.44
2022-08-05T08:26:07.736Z,20.49
2022-08-05T08:28:36.587Z,20.56
2022-08-05T08:31:15.041Z,20.61
2022-08-05T08:33:39.295Z,20.71
2022-08-05T08:36:29.698Z,20.74
2022-08-05T08:38:42.973Z,20.74
2022-08-05T08:41:16.670Z,20.90
2022-08-05T08:45:19.920Z,21.15
2022-08-05T08:46:27.499Z,21.31
2022-08-05T08:49:06.064Z,21.45
2022-08-05T08:52:04.106Z,21.55
2022-08-05T08:54:21.327Z,21.73
2022-08-05T08:56:49.690Z,21.88
2022-08-05T08:59:14.841Z,21.95
2022-08-05T09:01:43.076Z,21.95
2022-08-05T09:04:19.297Z,21.87
2022-08-05T09:06:41.657Z,21.83
2022-08-05T09:09:03.644Z,21.82
2022-08-05T09:11:51.783Z,21.87
2022-08-05T09:14:56.649Z,22.07
2022-08-05T09:16:55.066Z,22.32
2022-08-05T09:19:17.602Z,22.46
2022-08-05T09:22:23.342Z,22.61
2022-08-05T09:24:28.413Z,22.77
2022-08-05T09:26:58.689Z,22.78
2022-08-05T09:29:20.667Z,22.70
2022-08-05T09:32:40.632Z,22.63
2022-08-05T09:34:56.262Z,22.69
2022-08-05T09:38:12.093Z,22.80
2022-08-05T09:40:07.352Z,22.96
2022-08-05T09:42:41.730Z,22.91
2022-08-05T09:45:17.754Z,22.73
2022-08-05T09:47:56.029Z,22.50
2022-08-05T09:50:37.813Z,22.32
2022-08-05T09:53:02.475Z,22.15
2022-08-05T09:55:56.715Z,22.05
2022-08-05T09:58:15.334Z,21.90
2022-08-05T10:00:37.277Z,21.83
2022-08-05T10:03:10.694Z,21.82
2022-08-05T10:05:33.563Z,21.78
2022-08-05T10:08:36.876Z,21.79
2022-08-05T10:10:54.318Z,21.82
2022-08-05T10:13:44.199Z,21.85
2022-08-05T10:16:41.773Z,21.89
2022-08-05T10:19:16.382Z,22.14
2022-08-05T10:21:46.720Z,22.31
2022-08-05T10:24:13.355Z,22.61
2022-08-05T10:26:36.726Z,22.80
2022-08-05T10:29:11.128Z,22.93
2022-08-05T10:32:53.997Z,23.10
2022-08-05T10:34:16.961Z,23.23
2022-08-05T10:36:42.037Z,23.27
2022-08-05T10:39:25.072Z,23.25
2022-08-05T10:42:13.568Z,23.41
2022-08-05T10:44:36.899Z,23.38
2022-08-05T10:47:26.596Z,23.33
2022-08-05T10:50:32.977Z,23.30
2022-08-05T10:52:58.504Z,23.22
2022-08-05T10:55:20.900Z,23.37
2022-08-05T10:57:44.824Z,23.65
2022-08-05T11:00:20.506Z,23.87
2022-08-05T11:03:25.890Z,24.08
2022-08-05T11:06:14.967Z,24.21
2022-08-05T11:08:39.490Z,24.34
2022-08-05T11:11:44.288Z,24.37
2022-08-05T11:14:08.159Z,24.29
2022-08-05T11:16:33.776Z,24.42
2022-08-05T11:20:11.121Z,24.61
2022-08-05T11:22:43.011Z,24.79
2022-08-05T11:26:05.069Z,24.96
2022-08-05T11:28:25.969Z,25.03
2022-08-05T11:31:06.113Z,25.16
2022-08-05T11:33:46.103Z,25.19
2022-08-05T11:36:11.867Z,25.19
2022-08-05T11:38:45.929Z,25.22
2022-08-05T11:41:54.469Z,25.27
2022-08-05T11:44:08.349Z,25.33
2022-08-05T11:47:10.181Z,25.14
2022-08-05T11:49:33.964Z,24.95
2022-08-05T11:51:57.513Z,24.80
2022-08-05T11:54:34.555Z,24.71
2022-08-05T11:56:57.896Z,24.68
2022-08-05T11:59:27.353Z,24.56
2022-08-05T12:02:03.044Z,24.42
2022-08-05T12:04:37.217Z,24.28
2022-08-05T12:07:08.147Z,24.38
2022-08-05T12:09:52.873Z,24.58
2022-08-05T12:12:23.630Z,24.88
2022-08-05T12:14:47.826Z,24.94
2022-08-05T12:18:03.581Z,25.00
2022-08-05T12:20:16.660Z,24.91
2022-08-05T12:22:40.178Z,24.65
2022-08-05T12:25:08.792Z,24.48
2022-08-05T12:27:36.390Z,24.35
2022-08-05T12:30:15.586Z,24.23
2022-08-05T12:32:50.716Z,24.16
2022-08-05T12:35:21.505Z,24.02
2022-08-05T12:37:47.091Z,23.85
2022-08-05T12:40:20.758Z,23.73
2022-08-05T12:42:50.876Z,23.82
2022-08-05T12:45:13.756Z,24.05
2022-08-05T12:47:43.516Z,24.15
2022-08-05T12:50:24.061Z,24.31
2022-08-05T12:52:59.890Z,24.46
2022-08-05T12:55:26.465Z,24.62
2022-08-05T12:58:49.251Z,24.73
2022-08-05T13:02:00.105Z,24.67
2022-08-05T13:03:14.289Z,24.65
2022-08-05T13:05:37.760Z,24.59
2022-08-05T13:08:01.016Z,24.51
2022-08-05T13:10:24.213Z,24.50
2022-08-05T13:12:57.147Z,24.61
2022-08-05T13:15:24.458Z,24.74
2022-08-05T13:17:59.350Z,24.77
2022-08-05T13:20:24.169Z,24.54
2022-08-05T13:22:53.416Z,24.44
2022-08-05T13:25:19.313Z,24.29
2022-08-05T13:27:49.486Z,24.34
2022-08-05T13:30:35.833Z,24.51
2022-08-05T13:33:01.162Z,24.47
2022-08-05T13:35:31.294Z,24.58
2022-08-05T13:38:04.862Z,24.64
2022-08-05T13:40:51.425Z,24.62
2022-08-05T13:44:45.303Z,24.68
2022-08-05T13:47:08.453Z,24.70
2022-08-05T13:49:31.034Z,24.70
2022-08-05T13:51:57.340Z,24.75
2022-08-05T13:54:24.746Z,24.87
2022-08-05T13:56:50.971Z,24.91
2022-08-05T13:59:19.726Z,24.86
2022-08-05T14:01:46.664Z,24.74
2022-08-05T14:04:39.545Z,24.69
2022-08-05T14:07:25.116Z,24.82
2022-08-05T14:09:46.423Z,25.00
2022-08-05T14:12:18.159Z,25.23
2022-08-05T14:14:51.659Z,25.34
2022-08-05T14:17:17.650Z,25.43
2022-08-05T14:19:55.983Z,25.53
2022-08-05T14:22:23.892Z,25.61
2022-08-05T14:24:52.722Z,25.71
2022-08-05T14:27:18.536Z,25.61
2022-08-05T14:29:40.793Z,25.60
2022-08-05T14:32:13.134Z,25.42
2022-08-05T14:34:39.101Z,25.41
2022-08-05T14:37:02.920Z,25.10
2022-08-05T14:39:25.541Z,24.95
2022-08-05T14:42:15.900Z,24.89
2022-08-05T14:44:31.145Z,24.59
2022-08-05T14:46:53.082Z,24.41
2022-08-05T14:49:18.084Z,24.43
2022-08-05T14:51:42.862Z,24.40
2022-08-05T14:54:27.918Z,24.25
2022-08-05T14:56:49.578Z,24.25
2022-08-05T14:59:14.408Z,24.26
2022-08-05T15:01:48.463Z,24.37
2022-08-05T15:04:11.872Z,24.42
2022-08-05T15:06:33.954Z,24.53
2022-08-05T15:08:59.145Z,24.59
2022-08-05T15:11:52.706Z,24.47
2022-08-05T15:14:07.051Z,24.23
2022-08-05T15:16:29.326Z,24.10
2022-08-05T15:18:51.334Z,24.09
2022-08-05T15:21:14.554Z,24.12
2022-08-05T15:23:42.690Z,24.09
2022-08-05T15:26:04.619Z,24.21
2022-08-05T15:28:27.616Z,24.19
2022-08-05T15:30:53.157Z,24.10
2022-08-05T15:33:56.734Z,23.85
2022-08-05T15:35:57.522Z,23.74
2022-08-05T15:38:33.811Z,23.70
2022-08-05T15:41:23.553Z,23.53
2022-08-05T15:43:45.741Z,23.35
2022-08-05T15:46:08.892Z,23.25
2022-08-05T15:48:31.342Z,23.31
2022-08-05T15:50:53.166Z,23.29
2022-08-05T15:53:18.230Z,23.27
2022-08-05T15:56:02.634Z,23.49
2022-08-05T15:58:25.854Z,23.43
2022-08-05T16:00:50.921Z,23.45
2022-08-05T16:03:27.304Z,23.49
2022-08-05T16:05:52.742Z,23.43
2022-08-05T16:08:17.796Z,23.42
2022-08-05T16:10:44.176Z,23.35
2022-08-05T16:13:07.826Z,23.22
2022-08-05T16:15:32.771Z,23.10
2022-08-05T16:17:57.844Z,23.13
2022-08-05T16:20:20.190Z,23.18
2022-08-05T16:22:42.042Z,23.31
2022-08-05T16:25:09.845Z,23.33
2022-08-05T16:28:00.745Z,23.29
2022-08-05T16:30:23.555Z,23.37
2022-08-05T16:32:48.692Z,23.36
2022-08-05T16:35:11.479Z,23.32
2022-08-05T16:38:16.828Z,23.33
2022-08-05T16:40:26.651Z,23.36
2022-08-05T16:42:50.952Z,23.43
2022-08-05T16:46:04.850Z,23.44
2022-08-05T16:47:57.477Z,23.36
2022-08-05T16:50:22.950Z,23.40
2022-08-05T16:52:46.185Z,23.41
2022-08-05T16:55:08.546Z,23.38
2022-08-05T16:57:53.404Z,23.29
2022-08-05T17:00:14.153Z,23.17
2022-08-05T17:02:50.168Z,23.10
2022-08-05T17:05:13.274Z,23.02
2022-08-05T17:07:43.701Z,22.98
2022-08-05T17:10:16.646Z,22.95
2022-08-05T17:12:51.145Z,22.97
2022-08-05T17:15:15.706Z,22.79
2022-08-05T17:18:02.232Z,22.62
2022-08-05T17:20:25.075Z,22.39
2022-08-05T17:22:55.147Z,22.12
2022-08-05T17:25:33.691Z,21.93
2022-08-05T17:27:59.980Z,21.77
2022-08-05T17:30:28.449Z,21.69
2022-08-05T17:32:51.048Z,21.55
2022-08-05T17:35:15.731Z,21.42
2022-08-05T17:37:45.087Z,21.33
2022-08-05T17:40:14.942Z,21.29
2022-08-05T17:42:38.093Z,21.25
2022-08-05T17:45:09.770Z,21.37
2022-08-05T17:47:40.282Z,21.51
2022-08-05T17:50:10.183Z,21.66
2022-08-05T17:52:34.007Z,21.76
2022-08-05T17:54:55.876Z,21.86
2022-08-05T17:57:17.864Z,21.94
2022-08-05T17:59:41.193Z,21.98
2022-08-05T18:02:10.788Z,22.08
2022-08-05T18:04:32.947Z,22.15
2022-08-05T18:07:00.342Z,22.23
2022-08-05T18:09:22.990Z,22.35
2022-08-05T18:12:05.488Z,22.53
2022-08-05T18:14:27.359Z,22.62
2022-08-05T18:16:52.054Z,22.74
2022-08-05T18:19:15.540Z,22.92
2022-08-05T18:22:09.645Z,23.12
2022-08-05T18:24:19.564Z,23.39
2022-08-05T18:26:43.857Z,23.66
2022-08-05T18:29:05.852Z,23.78
2022-08-05T18:31:35.367Z,23.63
2022-08-05T18:33:57.742Z,23.38
2022-08-05T18:36:19.912Z,23.08
2022-08-05T18:38:49.932Z,22.75
2022-08-05T18:41:58.227Z,22.40
2022-08-05T18:43:53.852Z,21.99
2022-08-05T18:46:20.017Z,21.75
2022-08-05T18:48:42.365Z,21.46
2022-08-05T18:52:05.024Z,21.23
2022-08-05T18:54:05.616Z,20.93
2022-08-05T18:56:27.519Z,20.73
2022-08-05T18:58:53.543Z,20.57
2022-08-05T19:01:47.314Z,20.37
2022-08-05T19:04:05.606Z,20.12
2022-08-05T19:06:37.190Z,19.96
2022-08-05T19:09:06.371Z,19.83
2022-08-05T19:11:56.736Z,19.73
2022-08-05T19:14:44.736Z,19.58
2022-08-05T19:16:52.956Z,19.44
2022-08-05T19:19:15.406Z,19.37
2022-08-05T19:21:42.856Z,19.30
2022-08-05T19:24:12.339Z,19.18
2022-08-05T19:26:43.922Z,19.07
2022-08-05T19:29:16.980Z,18.97
2022-08-05T19:31:44.742Z,18.89
2022-08-05T19:34:12.847Z,18.80
2022-08-05T19:36:40.612Z,18.74
2022-08-05T19:39:04.592Z,18.70
2022-08-05T19:41:58.410Z,18.65
2022-08-05T19:44:13.632Z,18.59
2022-08-05T19:46:37.831Z,18.55
2022-08-05T19:49:04.128Z,18.50
2022-08-05T19:52:04.246Z,18.46
2022-08-05T19:54:21.894Z,18.39
2022-08-05T19:56:52.305Z,18.30
2022-08-05T19:59:51.150Z,18.25
2022-08-05T20:01:57.027Z,18.18
2022-08-05T20:04:18.919Z,18.17
2022-08-05T20:06:45.964Z,18.15
2022-08-05T20:09:13.858Z,18.11
2022-08-05T20:11:37.775Z,18.06
2022-08-05T20:14:12.370Z,18.01
2022-08-05T20:16:34.872Z,17.96
2022-08-05T20:18:57.673Z,17.95
2022-08-05T20:21:22.920Z,17.91
2022-08-05T20:23:50.908Z,17.86
2022-08-05T20:26:16.485Z,17.83
2022-08-05T20:28:39.437Z,17.81
2022-08-05T20:31:02.348Z,17.79
2022-08-05T20:33:24.217Z,17.73
2022-08-05T20:35:46.469Z,17.66
2022-08-05T20:38:09.229Z,17.59
2022-08-05T20:40:36.786Z,17.52
2022-08-05T20:43:00.153Z,17.48
2022-08-05T20:45:22.286Z,17.44
2022-08-05T20:48:04.574Z,17.36
2022-08-05T20:50:26.418Z,17.30
2022-08-05T20:52:49.108Z,17.25
2022-08-05T20:55:55.402Z,17.22
2022-08-05T20:57:57.135Z,17.18
2022-08-05T21:00:40.789Z,17.14
2022-08-05T21:03:06.767Z,17.09
2022-08-05T21:05:48.066Z,17.05
2022-08-05T21:08:11.308Z,17.06
2022-08-05T21:10:33.968Z,17.08
2022-08-05T21:13:08.812Z,17.08
2022-08-05T21:15:36.748Z,17.04
2022-08-05T21:17:58.811Z,17.01
2022-08-05T21:20:33.393Z,16.99
2022-08-05T21:22:55.465Z,16.94
2022-08-05T21:25:17.273Z,16.88
2022-08-05T21:27:39.706Z,16.84
2022-08-05T21:30:10.087Z,16.81
2022-08-05T21:32:39.591Z,16.76
2022-08-05T21:35:08.696Z,16.73
2022-08-05T21:37:41.188Z,16.67
2022-08-05T21:40:06.146Z,16.65
2022-08-05T21:42:43.889Z,16.62
2022-08-05T21:45:10.770Z,16.61
2022-08-05T21:47:56.038Z,16.60
2022-08-05T21:50:16.368Z,16.59
2022-08-05T21:52:38.218Z,16.56
2022-08-05T21:55:09.516Z,16.53
2022-08-05T21:57:32.675Z,16.50
2022-08-05T22:00:06.083Z,16.47
2022-08-05T22:02:34.602Z,16.43
2022-08-05T22:04:58.347Z,16.43
2022-08-05T22:07:20.586Z,16.39
2022-08-05T22:10:01.656Z,16.35
2022-08-05T22:12:26.397Z,16.29
2022-08-05T22:14:48.535Z,16.22
2022-08-05T22:17:10.388Z,16.20
2022-08-05T22:20:02.125Z,16.16
2022-08-05T22:22:15.943Z,16.11
2022-08-05T22:24:56.221Z,16.08
2022-08-05T22:28:05.061Z,16.04
2022-08-05T22:30:18.460Z,15.97
2022-08-05T22:32:43.107Z,15.94
2022-08-05T22:35:09.379Z,15.92
2022-08-05T22:37:57.958Z,15.88
2022-08-05T22:40:16.626Z,15.83
2022-08-05T22:42:41.234Z,15.78
2022-08-05T22:45:08.606Z,15.75
2022-08-05T22:47:32.431Z,15.71
2022-08-05T22:50:22.981Z,15.68
2022-08-05T22:52:41.857Z,15.64
2022-08-05T22:55:19.057Z,15.60
2022-08-05T22:57:42.041Z,15.56
2022-08-05T23:00:09.794Z,15.52
2022-08-05T23:02:32.208Z,15.48
2022-08-05T23:04:55.114Z,15.41
2022-08-05T23:07:17.029Z,15.35
2022-08-05T23:09:53.233Z,15.29
2022-08-05T23:12:24.024Z,15.22
2022-08-05T23:14:46.572Z,15.17
2022-08-05T23:17:24.459Z,15.10
2022-08-05T23:19:57.911Z,15.01
2022-08-05T23:22:20.860Z,14.92
2022-08-05T23:24:51.052Z,14.84
2022-08-05T23:27:13.931Z,14.77
2022-08-05T23:29:37.068Z,14.72
2022-08-05T23:31:58.893Z,14.68
2022-08-05T23:34:24.503Z,14.64
2022-08-05T23:36:46.786Z,14.59
2022-08-05T23:39:09.124Z,14.58
2022-08-05T23:41:34.186Z,14.55
2022-08-05T23:44:05.978Z,14.51
2022-08-05T23:46:28.512Z,14.49
2022-08-05T23:49:00.440Z,14.46
2022-08-05T23:51:23.873Z,14.44
2022-08-05T23:53:47.180Z,14.42
2022-08-05T23:56:09.043Z,14.39
2022-08-05T23:58:32.681Z,14.38
